Carson Valley, Nevada Weather observations

Data are for 10 minute period ending at time listed.
 Day   Time   Solar   Ave.   Ave.  Ave.  Vector  Max.   Baro.   Total    
  of    of     Rad.   Air    Rel.  Wind   Wind   Wind  Press.  Precip.   
Year   Day            Temp.  Hum.  Speed  Dir.   Gust                    
2015   (PST)  Kw/m2    F      %     mph   deg.    mph    mb.     in.     
-------------------------------------------------------------------------
 187    0:50   0.00   64.2    58    6.9   357    11.2   859.9    0.00 
 187    1:00   0.00   64.3    58    7.8   355    10.2   859.8    0.00 
 187    1:10   0.00   64.5    57    8.0   357    11.4   859.8    0.00 
 187    1:20   0.00   65.0    55    6.9     4    11.0   859.8    0.00 
 187    1:30   0.00   64.5    56    7.3   354    11.4   859.8    0.00 
 187    1:40   0.00   64.9    54    6.6     6     9.9   859.9    0.00 
 187    1:50   0.00   63.9    56    6.7    15    10.3   860.0    0.00 
 187    2:00   0.00   64.3    55    7.0     3    10.6   859.9    0.00 
 187    2:10   0.00   63.5    57    4.2    28     9.1   860.0    0.00 
 187    2:20   0.00   60.7    65    2.4   168     4.9   860.1    0.00 
 187    2:30   0.00   59.1    68    3.5   150     5.6   860.1    0.00 
 187    2:40   0.00   58.9    69    3.0   196     4.8   860.1    0.00 
 187    2:50   0.00   60.4    63    1.9   175     3.4   860.0    0.00 
 187    3:00   0.00   60.4    62    1.0   116     2.1   859.9    0.00 
 187    3:10   0.00   57.5    72    2.1   240     3.4   859.9    0.00 
 187    3:20   0.00   54.3    79    1.7    60     5.2   859.9    0.00 
 187    3:30   0.00   53.5    78    1.8    83     4.5   860.0    0.00 
 187    3:40   0.00   52.3    82    1.7   310     2.9   860.0    0.00 
 187    3:50   0.00   51.8    81    1.5   104     3.4   860.0    0.00 
 187    4:00   0.00   50.1    85    3.1   107     3.8   859.9    0.00 
 187    4:10   0.00   49.9    86    2.2   157     4.0   859.9    0.00 
 187    4:20   0.00   50.5    88    2.4   210     3.9   859.9    0.00 
 187    4:30   0.00   51.3    88    2.3   195     4.3   859.9    0.00 
 187    4:40   0.00   51.6    87    3.5   206     5.2   860.0    0.00 
 187    4:50   0.00   52.2    86    3.2   241     4.0   860.0    0.00 
 187    5:00   0.01   51.6    85    2.2   305     3.2   860.2    0.00 
 187    5:10   0.02   50.8    87    0.6   324     1.2   860.2    0.00 
 187    5:20   0.06   51.2    85    1.8    69     4.2   860.3    0.00 
 187    5:30   0.08   51.1    86    1.9   102     3.1   860.4    0.00 
 187    5:40   0.11   53.0    86    2.4   123     3.1   860.5    0.00 
 187    5:50   0.14   55.3    84    2.6   102     3.7   860.5    0.00 
 187    6:00   0.17   57.9    79    3.4   106     4.8   860.6    0.00 
 187    6:10   0.20   59.8    75    2.7   120     4.3   860.7    0.00 
 187    6:20   0.23   61.9    67    2.3   104     4.1   860.9    0.00 
 187    6:30   0.27   63.9    63    1.4   198     3.1   861.0    0.00 
 187    6:40   0.30   62.7    68    1.9   284     3.8   861.1    0.00 
 187    6:50   0.33   64.1    64    1.6   202     3.3   861.1    0.00 
 187    7:00   0.36   65.2    60    1.8   204     4.2   861.1    0.00 
 187    7:10   0.40   66.0    59    1.8   200     3.5   861.1    0.00 
 187    7:20   0.43   67.0    58    1.4   208     3.4   861.1    0.00 
 187    7:30   0.47   68.8    56    0.3   126     1.6   861.1    0.00 
 187    7:40   0.50   69.7    52    0.8   351     2.8   861.1    0.00 
 187    7:50   0.53   69.9    52    1.3    21     3.7   861.1    0.00 
 187    8:00   0.56   70.9    50    1.3   329     3.1   861.1    0.00 
 187    8:10   0.59   71.2    47    1.2     6     3.6   861.1    0.00 
 187    8:20   0.62   71.6    47    1.5   264     3.4   861.0    0.00 
 187    8:30   0.66   72.8    44    1.2   153     2.9   861.0    0.00 
 187    8:40   0.69   74.5    43    1.0   128     2.6   860.9    0.00 
 187    8:50   0.71   74.1    44    1.8   191     4.0   860.8    0.00 
 187    9:00   0.74   75.2    42    0.8    50     2.3   860.8    0.00 
 187    9:10   0.77   76.0    40    1.9    59     4.2   860.7    0.00 
 187    9:20   0.79   76.2    39    2.5    18     5.4   860.6    0.00 
 187    9:30   0.81   76.0    38    3.3   339     6.4   860.6    0.00 
 187    9:40   0.83   77.0    39    2.7    36     5.9   860.6    0.00 
 187    9:50   0.86   78.3    36    2.4    29     5.4   860.4    0.00 
 187   10:00   0.88   79.2    33    1.6    14     4.5   860.2    0.00 
 187   10:10   0.89   79.3    30    2.0   300     3.8   860.2    0.00 
 187   10:20   0.91   80.5    30    2.1   203     4.2   860.0    0.00 
 187   10:30   0.92   81.5    30    2.2   174     4.4   860.0    0.00 
 187   10:40   0.94   82.0    30    2.2     8     5.8   859.9    0.00 
 187   10:50   0.95   82.3    31    1.7    96     3.7   859.8    0.00 
 187   11:00   0.96   83.3    29    1.4    67     3.2   859.7    0.00 
 187   11:10   0.98   83.4    28    2.7    18     6.6   859.6    0.00 
 187   11:20   0.99   84.2    29    1.5     6     4.4   859.5    0.00 
 187   11:30   1.00   84.4    30    3.2    57     8.0   859.3    0.00 
 187   11:40   1.00   84.4    28    2.4    56     5.4   859.1    0.00 
 187   11:50   1.03   85.2    28    2.3    11     6.3   859.0    0.00 
 187   12:00   0.88   85.0    27    4.3    34     9.3   858.9    0.00 
 187   12:10   1.06   84.6    27    3.6   320     6.6   858.8    0.00 
 187   12:20   1.09   86.1    26    2.5   359     6.0   858.7    0.00 
 187   12:30   0.81   85.3    27    4.2    72     9.4   858.6    0.00 
 187   12:40   0.81   85.6    26    1.8   148     5.0   858.6    0.00 
 187   12:50   1.01   86.1    28    7.0   234    11.8   858.5    0.00 
 187   13:00   0.23   83.4    28    8.1   271    11.9   858.5    0.00 
 187   13:10   0.19   81.7    32    7.8   276    12.1   858.6    0.00 
 187   13:20   0.27   79.8    41    5.9   306     9.1   858.6    0.00 
 187   13:30   0.29   79.7    38    7.7   274    12.3   858.7    0.00 
 187   13:40   0.88   82.5    30    7.0   252    13.0   858.6    0.00 
 187   13:50   0.75   84.3    27    4.6   235    11.1   858.4    0.00 
 187   14:00   0.57   84.5    27    5.8   265    14.7   858.1    0.00 
 187   14:10   0.99   85.3    28   12.2   291    16.4   857.9    0.00 
 187   14:20   0.95   86.0    27   13.8   265    19.1   857.5    0.00 
 187   14:30   0.41   84.1    28   10.9   258    19.0   857.4    0.00 
 187   14:40   0.16   81.8    29   11.7   299    20.7   857.2    0.00 
 187   14:50   0.07   80.9    29    8.4   304    18.3   857.7    0.00 
 187   15:00   0.03   79.7    32    7.2   288    21.0   858.2    0.03 
 187   15:10   0.02   69.8    56   15.3   203    25.4   859.0    0.02 
 187   15:20   0.01   63.1    73   22.9   206    33.5   859.2    0.05 
 187   15:30   0.01   62.0    77   17.1   205    24.7   859.3    0.05 
 187   15:40   0.00   61.3    77   16.2   182    24.8   859.7    0.07 
 187   15:50   0.00   61.1    75   12.7   159    20.0   859.9    0.01 
 187   16:00   0.01   61.1    76    7.4   173    12.1   859.7    0.02 
 187   16:10   0.01   61.2    78    4.9   225     8.5   859.7    0.00 
 187   16:20   0.01   61.3    80    4.4   194    10.2   859.8    0.00 
 187   16:30   0.02   60.7    83    3.7   103     7.8   859.9    0.00 
 187   16:40   0.01   60.2    81    8.3   143    15.0   860.5    0.00 
 187   16:50   0.01   61.4    79    5.7   156     9.1   860.4    0.00 
 187   17:00   0.01   61.9    77    4.9   214    12.2   860.5    0.00 
 187   17:10   0.01   62.2    78    1.9   304     3.9   860.6    0.00 
 187   17:20   0.02   61.9    79    3.6    87     5.2   860.6    0.00 
 187   17:30   0.03   61.4    82    2.6    49     5.0   860.3    0.00 
 187   17:40   0.04   61.8    82    2.3   109     7.2   860.2    0.00 
 187   17:50   0.04   62.3    80    1.3    77     2.9   860.3    0.00 
 187   18:00   0.04   62.9    79    2.9   207     4.6   860.4    0.00 
 187   18:10   0.04   63.0    81    2.7   228     3.9   860.4    0.00 
 187   18:20   0.05   62.9    82    2.8   203     4.4   860.3    0.00 
 187   18:30   0.05   62.5    83    4.0   184     5.4   860.1    0.00 
 187   18:40   0.04   62.1    81    5.3   146     7.5   860.0    0.00 
 187   18:50   0.03   61.8    81    3.9   107     5.1   860.0    0.00 
 187   19:00   0.02   61.1    84    3.1    62     4.5   860.1    0.00 
 187   19:10   0.02   61.1    84    2.1   338     5.4   860.2    0.00 
 187   19:20   0.01   60.6    86    4.1   311     6.4   860.3    0.00 
 187   19:30   0.01   60.3    88    1.5   304     4.1   860.4    0.00 
 187   19:40   0.00   59.8    88    3.0   271     5.0   860.4    0.00 
 187   19:50   0.00   59.6    88    4.1   270     4.7   860.4    0.00 
 187   20:00   0.00   59.3    88    3.2   290     4.4   860.3    0.00 
 187   20:10   0.00   59.4    88    1.5   232     2.5   860.1    0.00 
 187   20:20   0.00   59.5    89    2.3   206     3.0   860.1    0.00 
 187   20:30   0.00   59.3    88    3.0   173     3.4   860.2    0.00 
 187   20:40   0.00   58.8    88    2.0   222     3.1   860.2    0.00 
 187   20:50   0.00   58.8    86    2.9   260     3.4   860.4    0.00 
 187   21:00   0.00   58.2    86    2.3   169     3.6   860.7    0.00 
 187   21:10   0.00   57.8    88    2.7   191     4.8   860.7    0.00 
 187   21:20   0.00   57.7    86    2.5   210     3.5   860.6    0.00 
 187   21:30   0.00   57.1    86    2.6   165     3.1   860.5    0.00 
 187   21:40   0.00   56.4    88    1.7   153     2.7   860.3    0.00 
 187   21:50   0.00   55.3    88    3.1    86     4.1   860.3    0.00 
 187   22:00   0.00   55.0    90    3.4    72     4.6   860.2    0.00 
 187   22:10   0.00   55.5    93    4.9   103     7.3   860.5    0.00 
 187   22:20   0.00   56.8    94    3.5   133     6.7   860.7    0.00 
 187   22:30   0.00   57.5    92    5.6   234     8.0   860.9    0.00 
 187   22:40   0.00   57.4    89    5.0   263     8.2   860.8    0.00 
 187   22:50   0.00   57.1    88    2.6   262     4.7   860.5    0.00 
 187   23:00   0.00   56.3    88    3.6   131     5.1   860.5    0.00 
 187   23:10   0.00   55.5    90    3.3   146     4.7   860.2    0.00 
 187   23:20   0.00   55.6    90    1.8   168     3.7   860.0    0.00 
 187   23:30   0.00   55.1    89    2.5    18     7.2   860.1    0.00 
 187   23:40   0.00   54.3    91    4.4    82     6.4   860.0    0.00 
 187   23:50   0.00   54.8    93    3.1   129     6.0   860.1    0.00 
 188    0:00   0.00   54.9    93    3.0   199     4.8   860.2    0.00 
 188    0:10   0.00   54.8    93    3.9   270     4.9   860.2    0.00 
 188    0:20   0.00   54.7    92    2.6   240     5.5   860.0    0.00 
 188    0:30   0.00   54.7    91    1.6   290     2.0   860.0    0.00 
 188    0:40   0.00   54.2    90    3.6   311     4.8   859.8    0.00 

Return to Carson Valley graphs page.


Western Regional Climate Center,wrcc@dri.edu